sensor_id;sensor_type;location;lat;lon;timestamp;temperature;humidity
39951;DHT22;25629;51.444;-2.606;2022-09-27T00:04:43;12.90;99.90
39951;DHT22;25629;51.444;-2.606;2022-09-27T00:07:09;12.90;99.90
39951;DHT22;25629;51.444;-2.606;2022-09-27T00:09:35;13.00;99.90
39951;DHT22;25629;51.444;-2.606;2022-09-27T00:12:01;13.00;99.90
39951;DHT22;25629;51.444;-2.606;2022-09-27T00:14:27;13.00;99.90
39951;DHT22;25629;51.444;-2.606;2022-09-27T00:16:53;13.00;99.90
39951;DHT22;25629;51.444;-2.606;2022-09-27T00:19:20;13.00;99.90
39951;DHT22;25629;51.444;-2.606;2022-09-27T00:21:47;13.00;99.90
39951;DHT22;25629;51.444;-2.606;2022-09-27T00:24:16;13.00;99.90
39951;DHT22;25629;51.444;-2.606;2022-09-27T00:26:42;13.00;99.90
39951;DHT22;25629;51.444;-2.606;2022-09-27T00:29:09;12.90;99.90
39951;DHT22;25629;51.444;-2.606;2022-09-27T00:31:36;12.90;99.90
39951;DHT22;25629;51.444;-2.606;2022-09-27T00:34:03;13.00;99.90
39951;DHT22;25629;51.444;-2.606;2022-09-27T00:36:29;12.90;99.90
39951;DHT22;25629;51.444;-2.606;2022-09-27T00:38:55;12.90;99.90
39951;DHT22;25629;51.444;-2.606;2022-09-27T00:41:24;12.90;99.90
39951;DHT22;25629;51.444;-2.606;2022-09-27T00:43:55;12.90;99.90
39951;DHT22;25629;51.444;-2.606;2022-09-27T00:46:41;12.90;99.90
39951;DHT22;25629;51.444;-2.606;2022-09-27T00:49:29;12.90;99.90
39951;DHT22;25629;51.444;-2.606;2022-09-27T00:52:07;12.80;99.90
39951;DHT22;25629;51.444;-2.606;2022-09-27T00:54:38;12.80;99.90
39951;DHT22;25629;51.444;-2.606;2022-09-27T00:57:05;12.80;99.90
39951;DHT22;25629;51.444;-2.606;2022-09-27T00:59:50;12.80;99.90
39951;DHT22;25629;51.444;-2.606;2022-09-27T01:02:19;12.80;99.90
39951;DHT22;25629;51.444;-2.606;2022-09-27T01:04:45;12.80;99.90
39951;DHT22;25629;51.444;-2.606;2022-09-27T01:07:12;12.80;99.90
39951;DHT22;25629;51.444;-2.606;2022-09-27T01:09:39;12.80;99.90
39951;DHT22;25629;51.444;-2.606;2022-09-27T01:12:18;12.80;99.90
39951;DHT22;25629;51.444;-2.606;2022-09-27T01:15:22;12.80;99.90
39951;DHT22;25629;51.444;-2.606;2022-09-27T01:26:12;12.70;99.90
39951;DHT22;25629;51.444;-2.606;2022-09-27T01:40:30;12.50;99.90
39951;DHT22;25629;51.444;-2.606;2022-09-27T01:43:06;12.50;99.90
39951;DHT22;25629;51.444;-2.606;2022-09-27T01:45:36;12.50;99.90
39951;DHT22;25629;51.444;-2.606;2022-09-27T01:48:08;12.60;99.90
39951;DHT22;25629;51.444;-2.606;2022-09-27T01:51:03;12.50;99.90
39951;DHT22;25629;51.444;-2.606;2022-09-27T01:53:34;12.60;99.90
39951;DHT22;25629;51.444;-2.606;2022-09-27T01:56:08;12.50;99.90
39951;DHT22;25629;51.444;-2.606;2022-09-27T01:58:46;12.60;99.90
39951;DHT22;25629;51.444;-2.606;2022-09-27T02:01:15;12.50;99.90
39951;DHT22;25629;51.444;-2.606;2022-09-27T02:03:47;12.50;99.90
39951;DHT22;25629;51.444;-2.606;2022-09-27T02:06:20;12.60;99.90
39951;DHT22;25629;51.444;-2.606;2022-09-27T02:09:02;12.50;99.90
39951;DHT22;25629;51.444;-2.606;2022-09-27T02:11:28;12.50;99.90
39951;DHT22;25629;51.444;-2.606;2022-09-27T02:16:51;12.50;99.90
39951;DHT22;25629;51.444;-2.606;2022-09-27T02:25:33;12.50;99.90
39951;DHT22;25629;51.444;-2.606;2022-09-27T02:28:12;12.50;99.90
39951;DHT22;25629;51.444;-2.606;2022-09-27T02:30:40;12.50;99.90
39951;DHT22;25629;51.444;-2.606;2022-09-27T02:33:05;12.40;99.90
39951;DHT22;25629;51.444;-2.606;2022-09-27T02:35:33;12.40;99.90
39951;DHT22;25629;51.444;-2.606;2022-09-27T02:37:59;12.40;99.90
39951;DHT22;25629;51.444;-2.606;2022-09-27T02:40:30;12.30;99.90
39951;DHT22;25629;51.444;-2.606;2022-09-27T02:42:58;12.30;99.90
39951;DHT22;25629;51.444;-2.606;2022-09-27T02:45:29;12.30;99.90
39951;DHT22;25629;51.444;-2.606;2022-09-27T02:48:21;12.30;99.90
39951;DHT22;25629;51.444;-2.606;2022-09-27T02:56:18;12.30;99.90
39951;DHT22;25629;51.444;-2.606;2022-09-27T03:04:52;12.20;99.90
39951;DHT22;25629;51.444;-2.606;2022-09-27T03:07:20;12.30;99.90
39951;DHT22;25629;51.444;-2.606;2022-09-27T03:09:49;12.30;99.90
39951;DHT22;25629;51.444;-2.606;2022-09-27T03:12:17;12.30;99.90
39951;DHT22;25629;51.444;-2.606;2022-09-27T03:14:57;12.30;99.90
39951;DHT22;25629;51.444;-2.606;2022-09-27T03:17:23;12.30;99.90
39951;DHT22;25629;51.444;-2.606;2022-09-27T03:19:49;12.30;99.90
39951;DHT22;25629;51.444;-2.606;2022-09-27T03:22:15;12.30;99.90
39951;DHT22;25629;51.444;-2.606;2022-09-27T03:24:41;12.40;99.90
39951;DHT22;25629;51.444;-2.606;2022-09-27T03:27:07;12.40;99.90
39951;DHT22;25629;51.444;-2.606;2022-09-27T03:29:33;12.40;99.90
39951;DHT22;25629;51.444;-2.606;2022-09-27T03:31:58;12.40;99.90
39951;DHT22;25629;51.444;-2.606;2022-09-27T03:34:24;12.40;99.90
39951;DHT22;25629;51.444;-2.606;2022-09-27T03:36:50;12.40;99.90
39951;DHT22;25629;51.444;-2.606;2022-09-27T03:39:16;12.40;99.90
39951;DHT22;25629;51.444;-2.606;2022-09-27T03:41:41;12.40;99.90
39951;DHT22;25629;51.444;-2.606;2022-09-27T03:44:07;12.40;99.90
39951;DHT22;25629;51.444;-2.606;2022-09-27T03:46:33;12.40;99.90
39951;DHT22;25629;51.444;-2.606;2022-09-27T03:48:59;12.40;99.90
39951;DHT22;25629;51.444;-2.606;2022-09-27T03:51:25;12.40;99.90
39951;DHT22;25629;51.444;-2.606;2022-09-27T03:53:50;12.40;99.90
39951;DHT22;25629;51.444;-2.606;2022-09-27T03:56:16;12.40;99.90
39951;DHT22;25629;51.444;-2.606;2022-09-27T03:58:42;12.40;99.90
39951;DHT22;25629;51.444;-2.606;2022-09-27T04:01:08;12.50;99.90
39951;DHT22;25629;51.444;-2.606;2022-09-27T04:03:34;12.50;99.90
39951;DHT22;25629;51.444;-2.606;2022-09-27T04:06:01;12.50;99.90
39951;DHT22;25629;51.444;-2.606;2022-09-27T04:08:27;12.60;99.90
39951;DHT22;25629;51.444;-2.606;2022-09-27T04:10:52;12.50;99.90
39951;DHT22;25629;51.444;-2.606;2022-09-27T04:13:18;12.50;99.90
39951;DHT22;25629;51.444;-2.606;2022-09-27T04:15:44;12.50;99.90
39951;DHT22;25629;51.444;-2.606;2022-09-27T04:18:10;12.50;99.90
39951;DHT22;25629;51.444;-2.606;2022-09-27T04:20:36;12.50;99.90
39951;DHT22;25629;51.444;-2.606;2022-09-27T04:23:02;12.50;99.90
39951;DHT22;25629;51.444;-2.606;2022-09-27T04:25:27;12.50;99.90
39951;DHT22;25629;51.444;-2.606;2022-09-27T04:27:53;12.60;99.90
39951;DHT22;25629;51.444;-2.606;2022-09-27T04:30:21;12.60;99.90
39951;DHT22;25629;51.444;-2.606;2022-09-27T04:32:47;12.70;99.90
39951;DHT22;25629;51.444;-2.606;2022-09-27T04:35:13;12.60;99.90
39951;DHT22;25629;51.444;-2.606;2022-09-27T04:37:58;12.70;99.90
39951;DHT22;25629;51.444;-2.606;2022-09-27T04:40:24;12.70;99.90
39951;DHT22;25629;51.444;-2.606;2022-09-27T04:42:50;12.70;99.90
39951;DHT22;25629;51.444;-2.606;2022-09-27T04:45:17;12.70;99.90
39951;DHT22;25629;51.444;-2.606;2022-09-27T04:47:47;12.70;99.90
39951;DHT22;25629;51.444;-2.606;2022-09-27T04:50:14;12.70;99.90
39951;DHT22;25629;51.444;-2.606;2022-09-27T04:52:40;12.70;99.90
39951;DHT22;25629;51.444;-2.606;2022-09-27T04:55:07;12.70;99.90
39951;DHT22;25629;51.444;-2.606;2022-09-27T04:57:33;12.80;99.90
39951;DHT22;25629;51.444;-2.606;2022-09-27T04:59:59;12.80;99.90
39951;DHT22;25629;51.444;-2.606;2022-09-27T05:02:27;12.70;99.90
39951;DHT22;25629;51.444;-2.606;2022-09-27T05:04:54;12.60;99.90
39951;DHT22;25629;51.444;-2.606;2022-09-27T05:07:27;12.60;99.90
39951;DHT22;25629;51.444;-2.606;2022-09-27T05:09:53;12.60;99.90
39951;DHT22;25629;51.444;-2.606;2022-09-27T05:12:19;12.60;99.90
39951;DHT22;25629;51.444;-2.606;2022-09-27T05:14:45;12.60;99.90
39951;DHT22;25629;51.444;-2.606;2022-09-27T05:17:11;12.60;99.90
39951;DHT22;25629;51.444;-2.606;2022-09-27T05:19:37;12.60;99.90
39951;DHT22;25629;51.444;-2.606;2022-09-27T05:22:04;12.50;99.90
39951;DHT22;25629;51.444;-2.606;2022-09-27T05:24:31;12.50;99.90
39951;DHT22;25629;51.444;-2.606;2022-09-27T05:26:58;12.40;99.90
39951;DHT22;25629;51.444;-2.606;2022-09-27T05:29:24;12.40;99.90
39951;DHT22;25629;51.444;-2.606;2022-09-27T05:31:50;12.50;99.90
39951;DHT22;25629;51.444;-2.606;2022-09-27T05:34:15;12.50;99.90
39951;DHT22;25629;51.444;-2.606;2022-09-27T05:36:46;12.50;99.90
39951;DHT22;25629;51.444;-2.606;2022-09-27T05:39:12;12.50;99.90
39951;DHT22;25629;51.444;-2.606;2022-09-27T05:41:41;12.50;99.90
39951;DHT22;25629;51.444;-2.606;2022-09-27T05:44:07;12.50;99.90
39951;DHT22;25629;51.444;-2.606;2022-09-27T05:46:32;12.50;99.90
39951;DHT22;25629;51.444;-2.606;2022-09-27T05:48:58;12.50;99.90
39951;DHT22;25629;51.444;-2.606;2022-09-27T05:51:24;12.60;99.90
39951;DHT22;25629;51.444;-2.606;2022-09-27T05:53:49;12.50;99.90
39951;DHT22;25629;51.444;-2.606;2022-09-27T05:56:15;12.60;99.90
39951;DHT22;25629;51.444;-2.606;2022-09-27T05:58:41;12.50;99.90
39951;DHT22;25629;51.444;-2.606;2022-09-27T06:01:08;12.50;99.90
39951;DHT22;25629;51.444;-2.606;2022-09-27T06:03:34;12.50;99.90
39951;DHT22;25629;51.444;-2.606;2022-09-27T06:06:01;12.50;99.90
39951;DHT22;25629;51.444;-2.606;2022-09-27T06:08:32;12.60;99.90
39951;DHT22;25629;51.444;-2.606;2022-09-27T06:11:03;12.60;99.90
39951;DHT22;25629;51.444;-2.606;2022-09-27T06:13:29;12.50;99.90
39951;DHT22;25629;51.444;-2.606;2022-09-27T06:15:55;12.30;99.90
39951;DHT22;25629;51.444;-2.606;2022-09-27T06:18:22;12.10;99.90
39951;DHT22;25629;51.444;-2.606;2022-09-27T06:20:48;11.90;99.90
39951;DHT22;25629;51.444;-2.606;2022-09-27T06:23:16;11.80;99.90
39951;DHT22;25629;51.444;-2.606;2022-09-27T06:25:43;11.70;99.90
39951;DHT22;25629;51.444;-2.606;2022-09-27T06:28:10;11.60;99.90
39951;DHT22;25629;51.444;-2.606;2022-09-27T06:30:47;11.60;99.90
39951;DHT22;25629;51.444;-2.606;2022-09-27T06:33:15;11.50;99.90
39951;DHT22;25629;51.444;-2.606;2022-09-27T06:35:41;11.50;99.90
39951;DHT22;25629;51.444;-2.606;2022-09-27T06:38:13;11.50;99.90
39951;DHT22;25629;51.444;-2.606;2022-09-27T06:40:43;11.50;99.90
39951;DHT22;25629;51.444;-2.606;2022-09-27T06:43:17;11.50;99.90
39951;DHT22;25629;51.444;-2.606;2022-09-27T06:45:44;11.50;99.90
39951;DHT22;25629;51.444;-2.606;2022-09-27T06:48:12;11.50;99.90
39951;DHT22;25629;51.444;-2.606;2022-09-27T06:50:40;11.60;99.90
39951;DHT22;25629;51.444;-2.606;2022-09-27T06:53:08;11.70;99.90
39951;DHT22;25629;51.444;-2.606;2022-09-27T06:55:35;11.70;99.90
39951;DHT22;25629;51.444;-2.606;2022-09-27T06:58:01;11.80;99.90
39951;DHT22;25629;51.444;-2.606;2022-09-27T07:00:48;11.80;99.90
39951;DHT22;25629;51.444;-2.606;2022-09-27T07:03:14;11.80;99.90
39951;DHT22;25629;51.444;-2.606;2022-09-27T07:05:40;11.80;99.90
39951;DHT22;25629;51.444;-2.606;2022-09-27T07:08:07;11.90;99.90
39951;DHT22;25629;51.444;-2.606;2022-09-27T07:10:35;11.90;99.90
39951;DHT22;25629;51.444;-2.606;2022-09-27T07:13:08;11.90;99.90
39951;DHT22;25629;51.444;-2.606;2022-09-27T07:15:36;11.90;99.90
39951;DHT22;25629;51.444;-2.606;2022-09-27T07:18:03;12.00;99.90
39951;DHT22;25629;51.444;-2.606;2022-09-27T07:20:31;12.00;99.90
39951;DHT22;25629;51.444;-2.606;2022-09-27T07:22:58;12.00;99.90
39951;DHT22;25629;51.444;-2.606;2022-09-27T07:25:24;12.10;99.90
39951;DHT22;25629;51.444;-2.606;2022-09-27T07:27:51;12.10;99.90
39951;DHT22;25629;51.444;-2.606;2022-09-27T07:30:20;12.20;99.90
39951;DHT22;25629;51.444;-2.606;2022-09-27T07:32:46;12.30;99.90
39951;DHT22;25629;51.444;-2.606;2022-09-27T07:35:12;12.30;99.90
39951;DHT22;25629;51.444;-2.606;2022-09-27T07:37:41;12.40;99.90
39951;DHT22;25629;51.444;-2.606;2022-09-27T07:40:08;12.40;99.90
39951;DHT22;25629;51.444;-2.606;2022-09-27T07:42:35;12.50;99.90
39951;DHT22;25629;51.444;-2.606;2022-09-27T07:45:06;12.50;99.90
39951;DHT22;25629;51.444;-2.606;2022-09-27T07:47:32;12.60;99.90
39951;DHT22;25629;51.444;-2.606;2022-09-27T07:49:58;12.70;99.90
39951;DHT22;25629;51.444;-2.606;2022-09-27T07:52:24;12.70;99.90
39951;DHT22;25629;51.444;-2.606;2022-09-27T07:54:50;12.80;99.90
39951;DHT22;25629;51.444;-2.606;2022-09-27T07:57:16;12.80;99.90
39951;DHT22;25629;51.444;-2.606;2022-09-27T07:59:41;12.80;99.90
39951;DHT22;25629;51.444;-2.606;2022-09-27T08:02:15;12.80;99.90
39951;DHT22;25629;51.444;-2.606;2022-09-27T08:04:42;12.80;99.90
39951;DHT22;25629;51.444;-2.606;2022-09-27T08:07:14;12.80;99.90
39951;DHT22;25629;51.444;-2.606;2022-09-27T08:09:39;12.90;99.90
39951;DHT22;25629;51.444;-2.606;2022-09-27T08:12:05;13.10;99.90
39951;DHT22;25629;51.444;-2.606;2022-09-27T08:14:31;13.20;99.90
39951;DHT22;25629;51.444;-2.606;2022-09-27T08:16:57;13.30;99.90
39951;DHT22;25629;51.444;-2.606;2022-09-27T08:19:23;13.30;99.90
39951;DHT22;25629;51.444;-2.606;2022-09-27T08:21:51;13.30;99.90
39951;DHT22;25629;51.444;-2.606;2022-09-27T08:24:20;13.50;99.90
39951;DHT22;25629;51.444;-2.606;2022-09-27T08:26:45;13.70;99.90
39951;DHT22;25629;51.444;-2.606;2022-09-27T08:29:11;13.90;99.90
39951;DHT22;25629;51.444;-2.606;2022-09-27T08:31:40;14.00;99.90
39951;DHT22;25629;51.444;-2.606;2022-09-27T08:34:05;14.00;99.90
39951;DHT22;25629;51.444;-2.606;2022-09-27T08:36:31;13.90;99.90
39951;DHT22;25629;51.444;-2.606;2022-09-27T08:39:00;13.90;99.90
39951;DHT22;25629;51.444;-2.606;2022-09-27T08:44:12;14.10;99.90
39951;DHT22;25629;51.444;-2.606;2022-09-27T08:49:39;14.10;99.90
39951;DHT22;25629;51.444;-2.606;2022-09-27T08:52:13;14.30;99.90
39951;DHT22;25629;51.444;-2.606;2022-09-27T08:54:42;14.60;99.90
39951;DHT22;25629;51.444;-2.606;2022-09-27T08:57:10;15.00;99.90
39951;DHT22;25629;51.444;-2.606;2022-09-27T08:59:47;15.10;99.90
39951;DHT22;25629;51.444;-2.606;2022-09-27T09:02:23;15.40;99.90
39951;DHT22;25629;51.444;-2.606;2022-09-27T09:04:59;15.60;99.90
39951;DHT22;25629;51.444;-2.606;2022-09-27T09:07:46;15.80;99.90
39951;DHT22;25629;51.444;-2.606;2022-09-27T09:10:43;15.60;99.90
39951;DHT22;25629;51.444;-2.606;2022-09-27T09:13:47;15.40;99.90
39951;DHT22;25629;51.444;-2.606;2022-09-27T09:19:29;15.40;99.90
39951;DHT22;25629;51.444;-2.606;2022-09-27T09:27:30;15.00;99.90
39951;DHT22;25629;51.444;-2.606;2022-09-27T09:30:21;15.20;99.90
39951;DHT22;25629;51.444;-2.606;2022-09-27T09:33:00;15.30;99.90
39951;DHT22;25629;51.444;-2.606;2022-09-27T09:35:44;15.40;99.90
39951;DHT22;25629;51.444;-2.606;2022-09-27T09:38:20;15.40;99.90
39951;DHT22;25629;51.444;-2.606;2022-09-27T09:41:01;15.60;99.90
39951;DHT22;25629;51.444;-2.606;2022-09-27T09:43:34;15.70;99.90
39951;DHT22;25629;51.444;-2.606;2022-09-27T09:46:17;16.10;99.90
39951;DHT22;25629;51.444;-2.606;2022-09-27T09:48:54;16.50;99.90
39951;DHT22;25629;51.444;-2.606;2022-09-27T09:51:31;16.80;99.90
39951;DHT22;25629;51.444;-2.606;2022-09-27T09:54:26;17.00;99.90
39951;DHT22;25629;51.444;-2.606;2022-09-27T09:57:32;17.10;99.90
39951;DHT22;25629;51.444;-2.606;2022-09-27T10:00:13;17.10;99.90
39951;DHT22;25629;51.444;-2.606;2022-09-27T10:02:42;16.90;99.90
39951;DHT22;25629;51.444;-2.606;2022-09-27T10:05:17;16.60;99.90
39951;DHT22;25629;51.444;-2.606;2022-09-27T10:07:43;16.30;99.90
39951;DHT22;25629;51.444;-2.606;2022-09-27T10:10:15;16.20;99.90
39951;DHT22;25629;51.444;-2.606;2022-09-27T10:12:42;15.90;99.90
39951;DHT22;25629;51.444;-2.606;2022-09-27T10:15:34;15.70;99.90
39951;DHT22;25629;51.444;-2.606;2022-09-27T10:18:00;15.50;99.90
39951;DHT22;25629;51.444;-2.606;2022-09-27T10:20:38;15.30;99.90
39951;DHT22;25629;51.444;-2.606;2022-09-27T10:23:15;15.10;99.90
39951;DHT22;25629;51.444;-2.606;2022-09-27T10:25:53;15.10;99.90
39951;DHT22;25629;51.444;-2.606;2022-09-27T10:28:33;15.10;99.90
39951;DHT22;25629;51.444;-2.606;2022-09-27T10:31:07;15.20;99.90
39951;DHT22;25629;51.444;-2.606;2022-09-27T10:33:36;15.20;99.90
39951;DHT22;25629;51.444;-2.606;2022-09-27T10:36:03;15.30;99.90
39951;DHT22;25629;51.444;-2.606;2022-09-27T10:38:33;15.40;99.90
39951;DHT22;25629;51.444;-2.606;2022-09-27T10:41:20;15.30;99.90
39951;DHT22;25629;51.444;-2.606;2022-09-27T10:43:47;15.20;99.90
39951;DHT22;25629;51.444;-2.606;2022-09-27T10:46:26;15.10;99.90
39951;DHT22;25629;51.444;-2.606;2022-09-27T10:49:19;15.10;99.90
39951;DHT22;25629;51.444;-2.606;2022-09-27T10:51:58;15.10;99.90
39951;DHT22;25629;51.444;-2.606;2022-09-27T10:54:27;15.00;99.90
39951;DHT22;25629;51.444;-2.606;2022-09-27T10:57:18;15.00;99.90
39951;DHT22;25629;51.444;-2.606;2022-09-27T10:59:50;14.90;99.90
39951;DHT22;25629;51.444;-2.606;2022-09-27T11:02:27;14.80;99.90
39951;DHT22;25629;51.444;-2.606;2022-09-27T11:07:34;14.90;99.90
39951;DHT22;25629;51.444;-2.606;2022-09-27T11:10:00;14.90;99.90
39951;DHT22;25629;51.444;-2.606;2022-09-27T11:12:30;14.80;99.90
39951;DHT22;25629;51.444;-2.606;2022-09-27T11:15:05;14.80;99.90
39951;DHT22;25629;51.444;-2.606;2022-09-27T11:20:33;14.80;99.90
39951;DHT22;25629;51.444;-2.606;2022-09-27T11:37:03;16.10;99.90
39951;DHT22;25629;51.444;-2.606;2022-09-27T11:42:41;16.20;99.90
39951;DHT22;25629;51.444;-2.606;2022-09-27T11:50:46;16.90;99.90
39951;DHT22;25629;51.444;-2.606;2022-09-27T12:01:59;16.90;99.90
39951;DHT22;25629;51.444;-2.606;2022-09-27T12:09:52;16.20;99.90
39951;DHT22;25629;51.444;-2.606;2022-09-27T12:12:24;16.10;99.90
39951;DHT22;25629;51.444;-2.606;2022-09-27T12:15:02;16.00;99.90
39951;DHT22;25629;51.444;-2.606;2022-09-27T12:17:34;16.00;99.90
39951;DHT22;25629;51.444;-2.606;2022-09-27T12:20:26;16.00;99.90
39951;DHT22;25629;51.444;-2.606;2022-09-27T12:23:21;16.20;99.90
39951;DHT22;25629;51.444;-2.606;2022-09-27T12:25:51;16.30;99.90
39951;DHT22;25629;51.444;-2.606;2022-09-27T12:28:52;16.30;99.90
39951;DHT22;25629;51.444;-2.606;2022-09-27T12:31:33;16.60;99.90
39951;DHT22;25629;51.444;-2.606;2022-09-27T12:37:01;16.80;99.90
39951;DHT22;25629;51.444;-2.606;2022-09-27T12:42:16;17.20;99.90
39951;DHT22;25629;51.444;-2.606;2022-09-27T12:44:44;17.80;99.90
39951;DHT22;25629;51.444;-2.606;2022-09-27T12:50:08;17.20;99.90
39951;DHT22;25629;51.444;-2.606;2022-09-27T12:52:41;16.90;99.90
39951;DHT22;25629;51.444;-2.606;2022-09-27T12:58:16;17.00;99.90
39951;DHT22;25629;51.444;-2.606;2022-09-27T13:00:57;17.30;99.90
39951;DHT22;25629;51.444;-2.606;2022-09-27T13:08:52;17.10;99.90
39951;DHT22;25629;51.444;-2.606;2022-09-27T13:14:27;16.60;99.90
39951;DHT22;25629;51.444;-2.606;2022-09-27T13:16:54;16.40;99.90
39951;DHT22;25629;51.444;-2.606;2022-09-27T13:19:39;16.30;99.90
39951;DHT22;25629;51.444;-2.606;2022-09-27T13:24:53;16.10;99.90
39951;DHT22;25629;51.444;-2.606;2022-09-27T13:29:51;15.90;99.90
39951;DHT22;25629;51.444;-2.606;2022-09-27T13:32:22;15.80;99.90
39951;DHT22;25629;51.444;-2.606;2022-09-27T13:40:23;15.80;99.90
39951;DHT22;25629;51.444;-2.606;2022-09-27T13:51:30;15.80;99.90
39951;DHT22;25629;51.444;-2.606;2022-09-27T13:54:05;15.80;99.90
39951;DHT22;25629;51.444;-2.606;2022-09-27T14:02:26;15.90;99.90
39951;DHT22;25629;51.444;-2.606;2022-09-27T14:04:53;16.00;99.90
39951;DHT22;25629;51.444;-2.606;2022-09-27T14:07:34;16.00;99.90
39951;DHT22;25629;51.444;-2.606;2022-09-27T14:10:02;16.00;99.90
39951;DHT22;25629;51.444;-2.606;2022-09-27T14:12:34;16.00;99.90
39951;DHT22;25629;51.444;-2.606;2022-09-27T14:15:02;16.10;99.90
39951;DHT22;25629;51.444;-2.606;2022-09-27T14:17:29;16.10;99.90
39951;DHT22;25629;51.444;-2.606;2022-09-27T14:19:55;16.10;99.90
39951;DHT22;25629;51.444;-2.606;2022-09-27T14:22:22;16.10;99.90
39951;DHT22;25629;51.444;-2.606;2022-09-27T14:24:52;16.10;99.90
39951;DHT22;25629;51.444;-2.606;2022-09-27T14:27:21;16.00;99.90
39951;DHT22;25629;51.444;-2.606;2022-09-27T14:29:50;16.00;99.90
39951;DHT22;25629;51.444;-2.606;2022-09-27T14:32:20;16.00;99.90
39951;DHT22;25629;51.444;-2.606;2022-09-27T14:35:17;15.90;99.90
39951;DHT22;25629;51.444;-2.606;2022-09-27T14:38:04;15.80;99.90
39951;DHT22;25629;51.444;-2.606;2022-09-27T14:43:20;15.30;99.90
39951;DHT22;25629;51.444;-2.606;2022-09-27T14:45:49;15.10;99.90
39951;DHT22;25629;51.444;-2.606;2022-09-27T14:48:30;15.00;99.90
39951;DHT22;25629;51.444;-2.606;2022-09-27T14:53:28;15.00;99.90
39951;DHT22;25629;51.444;-2.606;2022-09-27T14:55:54;15.10;99.90
39951;DHT22;25629;51.444;-2.606;2022-09-27T14:58:21;15.10;99.90
39951;DHT22;25629;51.444;-2.606;2022-09-27T15:00:48;15.10;99.90
39951;DHT22;25629;51.444;-2.606;2022-09-27T15:03:29;15.10;99.90
39951;DHT22;25629;51.444;-2.606;2022-09-27T15:05:57;15.20;99.90
39951;DHT22;25629;51.444;-2.606;2022-09-27T15:08:27;15.10;99.90
39951;DHT22;25629;51.444;-2.606;2022-09-27T15:11:02;15.10;99.90
39951;DHT22;25629;51.444;-2.606;2022-09-27T15:13:30;15.00;99.90
39951;DHT22;25629;51.444;-2.606;2022-09-27T15:15:57;15.00;99.90
39951;DHT22;25629;51.444;-2.606;2022-09-27T15:18:39;14.90;99.90
39951;DHT22;25629;51.444;-2.606;2022-09-27T15:21:08;14.80;99.90
39951;DHT22;25629;51.444;-2.606;2022-09-27T15:23:39;14.80;99.90
39951;DHT22;25629;51.444;-2.606;2022-09-27T15:26:15;14.80;99.90
39951;DHT22;25629;51.444;-2.606;2022-09-27T15:28:44;14.70;99.90
39951;DHT22;25629;51.444;-2.606;2022-09-27T15:31:11;14.70;99.90
39951;DHT22;25629;51.444;-2.606;2022-09-27T15:33:38;14.80;99.90
39951;DHT22;25629;51.444;-2.606;2022-09-27T15:36:09;14.80;99.90
39951;DHT22;25629;51.444;-2.606;2022-09-27T15:38:43;14.80;99.90
39951;DHT22;25629;51.444;-2.606;2022-09-27T15:41:18;14.80;99.90
39951;DHT22;25629;51.444;-2.606;2022-09-27T15:43:51;14.80;99.90
39951;DHT22;25629;51.444;-2.606;2022-09-27T15:46:36;14.90;99.90
39951;DHT22;25629;51.444;-2.606;2022-09-27T15:49:29;15.00;99.90
39951;DHT22;25629;51.444;-2.606;2022-09-27T15:51:57;15.10;99.90
39951;DHT22;25629;51.444;-2.606;2022-09-27T15:54:25;15.10;99.90
39951;DHT22;25629;51.444;-2.606;2022-09-27T15:56:54;15.10;99.90
39951;DHT22;25629;51.444;-2.606;2022-09-27T15:59:23;15.10;99.90
39951;DHT22;25629;51.444;-2.606;2022-09-27T16:01:54;15.00;99.90
39951;DHT22;25629;51.444;-2.606;2022-09-27T16:04:20;15.00;99.90
39951;DHT22;25629;51.444;-2.606;2022-09-27T16:06:46;15.00;99.90
39951;DHT22;25629;51.444;-2.606;2022-09-27T16:09:17;15.00;99.90
39951;DHT22;25629;51.444;-2.606;2022-09-27T16:11:44;14.90;99.90
39951;DHT22;25629;51.444;-2.606;2022-09-27T16:14:10;14.90;99.90
39951;DHT22;25629;51.444;-2.606;2022-09-27T16:16:39;14.80;99.90
39951;DHT22;25629;51.444;-2.606;2022-09-27T16:19:04;14.90;99.90
39951;DHT22;25629;51.444;-2.606;2022-09-27T16:21:30;14.80;99.90
39951;DHT22;25629;51.444;-2.606;2022-09-27T16:23:56;14.80;99.90
39951;DHT22;25629;51.444;-2.606;2022-09-27T16:26:22;14.70;99.90
39951;DHT22;25629;51.444;-2.606;2022-09-27T16:28:48;14.70;99.90
39951;DHT22;25629;51.444;-2.606;2022-09-27T16:31:15;14.80;99.90
39951;DHT22;25629;51.444;-2.606;2022-09-27T16:33:41;14.70;99.90
39951;DHT22;25629;51.444;-2.606;2022-09-27T16:36:07;14.70;99.90
39951;DHT22;25629;51.444;-2.606;2022-09-27T16:38:40;14.70;99.90
39951;DHT22;25629;51.444;-2.606;2022-09-27T16:41:06;14.70;99.90
39951;DHT22;25629;51.444;-2.606;2022-09-27T16:43:31;14.60;99.90
39951;DHT22;25629;51.444;-2.606;2022-09-27T16:46:06;14.50;99.90
39951;DHT22;25629;51.444;-2.606;2022-09-27T16:48:34;14.50;99.90
39951;DHT22;25629;51.444;-2.606;2022-09-27T16:51:06;14.50;99.90
39951;DHT22;25629;51.444;-2.606;2022-09-27T16:53:50;14.40;99.90
39951;DHT22;25629;51.444;-2.606;2022-09-27T16:56:16;14.30;99.90
39951;DHT22;25629;51.444;-2.606;2022-09-27T16:58:42;14.40;99.90
39951;DHT22;25629;51.444;-2.606;2022-09-27T17:01:08;14.30;99.90
39951;DHT22;25629;51.444;-2.606;2022-09-27T17:03:34;14.30;99.90
39951;DHT22;25629;51.444;-2.606;2022-09-27T17:06:00;14.30;99.90
39951;DHT22;25629;51.444;-2.606;2022-09-27T17:08:28;14.20;99.90
39951;DHT22;25629;51.444;-2.606;2022-09-27T17:10:54;14.20;99.90
39951;DHT22;25629;51.444;-2.606;2022-09-27T17:13:22;14.10;99.90
39951;DHT22;25629;51.444;-2.606;2022-09-27T17:15:48;14.10;99.90
39951;DHT22;25629;51.444;-2.606;2022-09-27T17:18:13;14.10;99.90
39951;DHT22;25629;51.444;-2.606;2022-09-27T17:20:39;14.10;99.90
39951;DHT22;25629;51.444;-2.606;2022-09-27T17:23:05;14.10;99.90
39951;DHT22;25629;51.444;-2.606;2022-09-27T17:25:31;14.00;99.90
39951;DHT22;25629;51.444;-2.606;2022-09-27T17:27:57;14.00;99.90
39951;DHT22;25629;51.444;-2.606;2022-09-27T17:30:23;14.00;99.90
39951;DHT22;25629;51.444;-2.606;2022-09-27T17:32:48;13.90;99.90
39951;DHT22;25629;51.444;-2.606;2022-09-27T17:35:14;13.90;99.90
39951;DHT22;25629;51.444;-2.606;2022-09-27T17:37:40;13.90;99.90
39951;DHT22;25629;51.444;-2.606;2022-09-27T17:40:06;13.80;99.90
39951;DHT22;25629;51.444;-2.606;2022-09-27T17:42:32;13.80;99.90
39951;DHT22;25629;51.444;-2.606;2022-09-27T17:44:59;13.80;99.90
39951;DHT22;25629;51.444;-2.606;2022-09-27T17:47:26;13.70;99.90
39951;DHT22;25629;51.444;-2.606;2022-09-27T17:50:10;13.70;99.90
39951;DHT22;25629;51.444;-2.606;2022-09-27T17:52:56;13.70;99.90
39951;DHT22;25629;51.444;-2.606;2022-09-27T17:55:23;13.70;99.90
39951;DHT22;25629;51.444;-2.606;2022-09-27T17:57:49;13.80;99.90
39951;DHT22;25629;51.444;-2.606;2022-09-27T18:00:16;13.80;99.90
39951;DHT22;25629;51.444;-2.606;2022-09-27T18:02:42;13.80;99.90
39951;DHT22;25629;51.444;-2.606;2022-09-27T18:05:09;13.80;99.90
39951;DHT22;25629;51.444;-2.606;2022-09-27T18:07:35;13.80;99.90